createdAt,value
2022-08-17T00:00:00.349Z,85.8
2022-08-17T00:01:00.614Z,85.9
2022-08-17T00:02:01.472Z,86.4
2022-08-17T00:03:00.792Z,86.1
2022-08-17T00:04:00.947Z,86.2
2022-08-17T00:05:01.101Z,85.7
2022-08-17T00:06:01.237Z,85.5
2022-08-17T00:07:00.416Z,85.6
2022-08-17T00:08:00.577Z,85.5
2022-08-17T00:09:00.722Z,85.8
2022-08-17T00:10:00.857Z,85.8
2022-08-17T00:11:01.005Z,86.6
2022-08-17T00:12:42.054Z,86.5
2022-08-17T00:13:00.352Z,86.6
2022-08-17T00:14:00.468Z,86.3
2022-08-17T00:15:00.633Z,86.2
2022-08-17T00:16:00.787Z,86.7
2022-08-17T00:17:00.938Z,86.6
2022-08-17T00:18:01.106Z,86.7
2022-08-17T00:19:08.440Z,86.8
2022-08-17T00:20:00.400Z,87
2022-08-17T00:21:00.541Z,87.3
2022-08-17T00:22:32.989Z,87
2022-08-17T00:23:00.866Z,87.2
2022-08-17T00:24:00.997Z,86.8
2022-08-17T00:25:01.226Z,86.3
2022-08-17T00:26:00.308Z,86.8
2022-08-17T00:27:00.446Z,87.3
2022-08-17T00:28:00.628Z,87.1
2022-08-17T00:29:00.754Z,86.6
2022-08-17T00:30:00.902Z,86.2
2022-08-17T00:31:01.049Z,86.7
2022-08-17T00:32:01.204Z,86.3
2022-08-17T00:33:14.542Z,86.4
2022-08-17T00:34:00.513Z,86.6
2022-08-17T00:35:00.667Z,86.5
2022-08-17T00:36:00.800Z,86.7
2022-08-17T00:37:00.955Z,87.4
2022-08-17T00:38:01.132Z,87.3
2022-08-17T00:39:01.257Z,87.3
2022-08-17T00:40:00.506Z,87.3
2022-08-17T00:41:00.557Z,87.3
2022-08-17T00:42:00.718Z,87.4
2022-08-17T00:43:00.896Z,87.3
2022-08-17T00:44:01.033Z,87.4
2022-08-17T00:45:01.178Z,87.5
2022-08-17T00:46:00.331Z,87.6
2022-08-17T00:47:00.500Z,87.8
2022-08-17T00:48:00.637Z,87.8
2022-08-17T00:49:00.768Z,87.7
2022-08-17T00:50:00.922Z,87.6
2022-08-17T00:51:01.068Z,87.8
2022-08-17T00:52:01.244Z,87.8
2022-08-17T00:53:00.378Z,87.7
2022-08-17T00:54:00.510Z,87.6
2022-08-17T00:55:00.659Z,87.6
2022-08-17T00:56:00.812Z,87.6
2022-08-17T00:57:00.987Z,87.6
2022-08-17T00:58:01.155Z,87.7
2022-08-17T00:59:00.308Z,87.7
2022-08-17T01:00:03.309Z,87.8
2022-08-17T01:01:00.666Z,87.8
2022-08-17T01:02:00.735Z,87.7
2022-08-17T01:03:00.906Z,87.5
2022-08-17T01:04:01.076Z,87.9
2022-08-17T01:05:01.199Z,88
2022-08-17T01:06:00.349Z,87.9
2022-08-17T01:07:00.496Z,88.2
2022-08-17T01:08:00.643Z,87.4
2022-08-17T01:09:00.825Z,86.7
2022-08-17T01:10:00.944Z,86.8
2022-08-17T01:11:01.977Z,86.6
2022-08-17T01:12:01.257Z,86.7
2022-08-17T01:13:00.410Z,87.5
2022-08-17T01:14:00.590Z,87.8
2022-08-17T01:15:00.712Z,88.2
2022-08-17T01:16:00.872Z,87.9
2022-08-17T01:17:01.033Z,87.6
2022-08-17T01:18:01.181Z,87.6
2022-08-17T01:19:00.348Z,87.4
2022-08-17T01:20:00.476Z,87.6
2022-08-17T01:21:00.626Z,87
2022-08-17T01:22:00.769Z,87
2022-08-17T01:23:00.921Z,87.2
2022-08-17T01:24:01.094Z,87.1
2022-08-17T01:25:01.228Z,86.4
2022-08-17T01:26:00.376Z,87
2022-08-17T01:27:00.531Z,87.8
2022-08-17T01:28:00.674Z,88.2
2022-08-17T01:29:00.861Z,87.9
2022-08-17T01:30:00.976Z,87.6
2022-08-17T01:31:01.145Z,87.1
2022-08-17T01:32:00.279Z,87
2022-08-17T01:33:00.431Z,87
2022-08-17T01:34:00.656Z,87.7
2022-08-17T01:35:00.746Z,88.3
2022-08-17T01:36:00.888Z,87.7
2022-08-17T01:37:01.037Z,87.8
2022-08-17T01:38:01.183Z,87.2
2022-08-17T01:39:00.363Z,87
2022-08-17T01:40:00.611Z,87.3
2022-08-17T01:41:00.641Z,86.5
2022-08-17T01:42:00.793Z,87
2022-08-17T01:43:00.945Z,87.3
2022-08-17T01:44:01.083Z,88
2022-08-17T01:45:01.242Z,88
2022-08-17T01:46:03.132Z,87.9
2022-08-17T01:47:00.529Z,88.1
2022-08-17T01:48:00.684Z,87.9
2022-08-17T01:49:00.834Z,88
2022-08-17T01:50:01.003Z,87.5
2022-08-17T01:51:01.148Z,87.7
2022-08-17T01:52:00.308Z,87.5
2022-08-17T01:53:00.443Z,88
2022-08-17T01:54:00.586Z,88.2
2022-08-17T01:55:00.731Z,88.4
2022-08-17T01:56:00.897Z,88.6
2022-08-17T01:57:01.063Z,88.6
2022-08-17T01:58:01.330Z,88.5
2022-08-17T01:59:00.354Z,87.8
2022-08-17T02:00:00.492Z,87.5
2022-08-17T02:01:01.643Z,88.2
2022-08-17T02:02:00.838Z,88.3
2022-08-17T02:03:00.951Z,88
2022-08-17T02:04:01.850Z,87.8
2022-08-17T02:05:01.252Z,88
2022-08-17T02:06:00.409Z,88.5
2022-08-17T02:07:00.591Z,88.9
2022-08-17T02:08:00.953Z,88.7
2022-08-17T02:09:02.689Z,88.5
2022-08-17T02:10:00.992Z,88.3
2022-08-17T02:11:01.138Z,87.9
2022-08-17T02:12:00.319Z,87.8
2022-08-17T02:13:00.440Z,87.7
2022-08-17T02:14:03.220Z,87.6
2022-08-17T02:15:00.757Z,87.9
2022-08-17T02:16:00.900Z,88
2022-08-17T02:17:01.064Z,88.4
2022-08-17T02:18:01.229Z,88.5
2022-08-17T02:19:00.342Z,88.8
2022-08-17T02:20:00.498Z,89.1
2022-08-17T02:21:00.656Z,88.8
2022-08-17T02:22:00.801Z,88.4
2022-08-17T02:23:00.995Z,88.3
2022-08-17T02:24:01.118Z,87.8
2022-08-17T02:25:02.183Z,87.8
2022-08-17T02:26:00.421Z,88.1
2022-08-17T02:27:00.568Z,88.6
2022-08-17T02:28:00.754Z,88.6
2022-08-17T02:29:00.888Z,88.6
2022-08-17T02:30:01.034Z,88.4
2022-08-17T02:31:03.258Z,88.4
2022-08-17T02:32:00.345Z,88.5
2022-08-17T02:33:00.524Z,88.7
2022-08-17T02:34:04.516Z,88.6
2022-08-17T02:35:00.805Z,88.9
2022-08-17T02:36:00.954Z,88.6
2022-08-17T02:37:01.087Z,88.6
2022-08-17T02:38:01.286Z,88.9
2022-08-17T02:39:00.394Z,88.4
2022-08-17T02:40:00.596Z,88.6
2022-08-17T02:41:00.706Z,88.6
2022-08-17T02:42:00.855Z,88.3
2022-08-17T02:43:01.021Z,88.6
2022-08-17T02:44:01.177Z,88.8
2022-08-17T02:45:00.300Z,88.8
2022-08-17T02:46:00.465Z,89
2022-08-17T02:47:00.624Z,89.1
2022-08-17T02:48:00.783Z,89.2
2022-08-17T02:49:00.925Z,88.8
2022-08-17T02:50:01.099Z,88.7
2022-08-17T02:51:01.228Z,88.3
2022-08-17T02:52:00.390Z,88.4
2022-08-17T02:53:02.280Z,88.1
2022-08-17T02:54:39.226Z,88.1
2022-08-17T02:55:00.882Z,88.1
2022-08-17T02:56:00.992Z,87.9
2022-08-17T02:57:01.141Z,88.1
2022-08-17T02:58:00.308Z,87.9
2022-08-17T02:59:00.453Z,88.4
2022-08-17T03:00:00.622Z,88.3
2022-08-17T03:01:00.743Z,88.1
2022-08-17T03:02:00.981Z,88.2
2022-08-17T03:03:01.042Z,88
2022-08-17T03:04:01.200Z,88.2
2022-08-17T03:05:00.379Z,88.4
2022-08-17T03:06:00.505Z,88.3
2022-08-17T03:07:00.649Z,88.3
2022-08-17T03:08:00.797Z,88
2022-08-17T03:09:00.954Z,88.2
2022-08-17T03:10:01.118Z,88.7
2022-08-17T03:11:01.261Z,89
2022-08-17T03:12:00.394Z,89.1
2022-08-17T03:13:00.551Z,89.2
2022-08-17T03:14:00.701Z,89.2
2022-08-17T03:15:00.847Z,89.2
2022-08-17T03:16:01.030Z,89.4
2022-08-17T03:17:01.167Z,89.4
2022-08-17T03:18:00.302Z,89
2022-08-17T03:19:00.452Z,89.2
2022-08-17T03:20:00.608Z,89.3
2022-08-17T03:21:00.775Z,88.8
2022-08-17T03:22:00.900Z,88.7
2022-08-17T03:23:02.733Z,88.8
2022-08-17T03:24:01.247Z,89
2022-08-17T03:25:00.407Z,88.9
2022-08-17T03:26:00.570Z,88.8
2022-08-17T03:27:00.702Z,88.9
2022-08-17T03:28:00.851Z,88.7
2022-08-17T03:29:01.005Z,88.6
2022-08-17T03:30:01.165Z,88.8
2022-08-17T03:31:00.327Z,88.7
2022-08-17T03:32:00.496Z,88.6
2022-08-17T03:33:00.618Z,89
2022-08-17T03:34:00.764Z,89.2
2022-08-17T03:35:00.918Z,89.2
2022-08-17T03:36:01.068Z,89.2
2022-08-17T03:37:01.252Z,89.1
2022-08-17T03:38:01.195Z,89.2
2022-08-17T03:39:00.523Z,89.4
2022-08-17T03:40:00.771Z,89.7
2022-08-17T03:41:00.833Z,89.7
2022-08-17T03:42:00.997Z,89.1
2022-08-17T03:43:01.157Z,89
2022-08-17T03:44:00.288Z,89
2022-08-17T03:45:00.422Z,89.1
2022-08-17T03:46:00.584Z,89.1
2022-08-17T03:47:00.738Z,89.2
2022-08-17T03:48:00.912Z,89.1
2022-08-17T03:49:01.027Z,89.1
2022-08-17T03:50:01.200Z,89.1
2022-08-17T03:51:00.345Z,89.2
2022-08-17T03:52:00.498Z,89
2022-08-17T03:53:00.666Z,89.3
2022-08-17T03:54:00.792Z,89.4
2022-08-17T03:55:00.948Z,89.5
2022-08-17T03:56:01.102Z,89.7
2022-08-17T03:57:01.268Z,89.9
2022-08-17T03:58:00.429Z,89.9
2022-08-17T03:59:00.556Z,89
2022-08-17T04:00:00.720Z,88.4
2022-08-17T04:01:00.936Z,88.4
2022-08-17T04:02:01.021Z,88.3
2022-08-17T04:03:01.202Z,88.6
2022-08-17T04:04:00.321Z,88.6
2022-08-17T04:05:00.471Z,88.6
2022-08-17T04:06:00.615Z,89.3
2022-08-17T04:07:00.767Z,89.1
2022-08-17T04:08:00.922Z,89
2022-08-17T04:09:01.096Z,88.6
2022-08-17T04:10:01.224Z,88.4
2022-08-17T04:11:00.365Z,88.7
2022-08-17T04:12:02.552Z,89.1
2022-08-17T04:13:00.661Z,89.7
2022-08-17T04:14:00.840Z,90
2022-08-17T04:15:00.973Z,89.8
2022-08-17T04:16:01.132Z,89.7
2022-08-17T04:17:00.274Z,88.9
2022-08-17T04:18:00.428Z,88.9
2022-08-17T04:19:00.695Z,88.8
2022-08-17T04:20:00.734Z,88.9
2022-08-17T04:21:00.888Z,88.8
2022-08-17T04:22:01.041Z,88.8
2022-08-17T04:23:01.196Z,88.9
2022-08-17T04:24:00.358Z,89.4
2022-08-17T04:25:00.503Z,89.7
2022-08-17T04:26:00.675Z,89.8
2022-08-17T04:27:00.807Z,90.2
2022-08-17T04:28:00.973Z,89.8
2022-08-17T04:29:01.145Z,89.1
2022-08-17T04:30:00.299Z,89.4
2022-08-17T04:31:00.433Z,89
2022-08-17T04:32:00.587Z,88.7
2022-08-17T04:33:05.887Z,88.8
2022-08-17T04:34:00.918Z,89.4
2022-08-17T04:35:01.054Z,89.8
2022-08-17T04:36:01.200Z,89.7
2022-08-17T04:37:00.349Z,89.3
2022-08-17T04:38:00.489Z,89.3
2022-08-17T04:39:00.666Z,89.6
2022-08-17T04:40:03.903Z,89.7
2022-08-17T04:41:00.943Z,89.8
2022-08-17T04:42:01.103Z,89.8
2022-08-17T04:43:01.252Z,89.6
2022-08-17T04:44:00.399Z,89.8
2022-08-17T04:45:00.585Z,89.7
2022-08-17T04:46:00.704Z,89.6
2022-08-17T04:47:00.874Z,89.7
2022-08-17T04:48:01.067Z,89.8
2022-08-17T04:49:01.177Z,89.6
2022-08-17T04:50:00.359Z,89.4
2022-08-17T04:51:00.476Z,89.7
2022-08-17T04:52:04.242Z,89.8
2022-08-17T04:53:01.208Z,89.7
2022-08-17T04:54:00.939Z,89.4
2022-08-17T04:55:01.110Z,89.5
2022-08-17T04:56:01.240Z,88.7
2022-08-17T04:57:00.389Z,88.2
2022-08-17T04:58:00.534Z,88.6
2022-08-17T04:59:00.701Z,89
2022-08-17T05:00:00.882Z,89.4
2022-08-17T05:01:01.082Z,89.5
2022-08-17T05:02:01.153Z,89.5
2022-08-17T05:03:00.303Z,89.5
2022-08-17T05:04:00.465Z,89.4
2022-08-17T05:05:00.647Z,89.5
2022-08-17T05:06:00.765Z,89.5
2022-08-17T05:07:00.899Z,89.3
2022-08-17T05:08:01.053Z,89.5
2022-08-17T05:09:01.198Z,89.6
2022-08-17T05:10:00.379Z,89.6
2022-08-17T05:11:00.532Z,89.6
2022-08-17T05:12:00.654Z,89.6
2022-08-17T05:13:00.799Z,89.8
2022-08-17T05:14:00.947Z,89.6
2022-08-17T05:15:01.096Z,89.4
2022-08-17T05:17:00.389Z,89.4
2022-08-17T05:18:00.515Z,89.4
2022-08-17T05:19:00.662Z,89.4
2022-08-17T05:20:00.813Z,89.2
2022-08-17T05:21:00.959Z,89
2022-08-17T05:22:01.134Z,88.9
2022-08-17T05:23:01.252Z,89
2022-08-17T05:24:00.397Z,88.9
2022-08-17T05:25:01.841Z,89.2
2022-08-17T05:26:00.703Z,89.2
2022-08-17T05:27:06.133Z,89.1
2022-08-17T05:28:01.034Z,89.1
2022-08-17T05:29:02.819Z,88.6
2022-08-17T05:30:00.329Z,88.4
2022-08-17T05:31:00.475Z,88.1
2022-08-17T05:32:00.722Z,88.3
2022-08-17T05:33:00.794Z,88.2
2022-08-17T05:34:00.944Z,88.3
2022-08-17T05:35:01.104Z,88.4
2022-08-17T05:36:01.254Z,88.2
2022-08-17T05:37:00.443Z,87.9
2022-08-17T05:38:00.558Z,87.9
2022-08-17T05:39:00.703Z,87.9
2022-08-17T05:40:00.927Z,87.9
2022-08-17T05:41:01.008Z,88
2022-08-17T05:42:01.177Z,87.9
2022-08-17T05:43:00.306Z,87.5
2022-08-17T05:44:00.453Z,87.2
2022-08-17T05:45:00.614Z,87.1
2022-08-17T05:46:00.762Z,87.1
2022-08-17T05:47:00.932Z,86.7
2022-08-17T05:48:01.061Z,86.4
2022-08-17T05:49:01.219Z,86
2022-08-17T05:50:00.360Z,86.1
2022-08-17T05:51:00.521Z,86.2
2022-08-17T05:52:00.694Z,86.2
2022-08-17T05:53:00.841Z,86
2022-08-17T05:54:00.992Z,85.9
2022-08-17T05:55:01.152Z,85.8
2022-08-17T05:56:00.298Z,86.2
2022-08-17T05:57:00.456Z,86.4
2022-08-17T05:58:00.619Z,86.3
2022-08-17T05:59:00.769Z,86.2
2022-08-17T06:00:00.944Z,86.2
2022-08-17T06:01:01.159Z,86.1
2022-08-17T06:02:01.229Z,86
2022-08-17T06:03:00.379Z,85.8
2022-08-17T06:04:00.532Z,85.4
2022-08-17T06:05:00.694Z,85.3
2022-08-17T06:06:00.845Z,85.3
2022-08-17T06:07:00.993Z,84.9
2022-08-17T06:08:01.151Z,84.3
2022-08-17T06:09:00.300Z,84.2
2022-08-17T06:10:00.475Z,83.9
2022-08-17T06:11:00.607Z,83.7
2022-08-17T06:12:00.754Z,84.2
2022-08-17T06:13:00.912Z,84.2
2022-08-17T06:14:01.059Z,84.4
2022-08-17T06:15:01.248Z,84.5
2022-08-17T06:16:00.357Z,84.1
2022-08-17T06:17:00.502Z,83.4
2022-08-17T06:18:00.670Z,82.9
2022-08-17T06:19:00.817Z,82.3
2022-08-17T06:20:00.998Z,82.2
2022-08-17T06:21:01.154Z,82.2
2022-08-17T06:22:00.279Z,82.3
2022-08-17T06:23:00.424Z,82.3
2022-08-17T06:24:00.575Z,82.3
2022-08-17T06:25:00.753Z,82.1
2022-08-17T06:26:00.874Z,82
2022-08-17T06:27:01.038Z,81.7
2022-08-17T06:28:01.192Z,81.4
2022-08-17T06:29:00.365Z,81
2022-08-17T06:30:00.511Z,80.6
2022-08-17T06:31:01.393Z,80.3
2022-08-17T06:32:00.807Z,80.1
2022-08-17T06:33:00.955Z,80.5
2022-08-17T06:34:01.102Z,81.2
2022-08-17T06:35:00.290Z,79.8
2022-08-17T06:36:00.448Z,79.6
2022-08-17T06:37:00.572Z,79.8
2022-08-17T06:38:00.725Z,79.4
2022-08-17T06:39:00.885Z,79.3
2022-08-17T06:40:01.107Z,79.2
2022-08-17T06:41:01.171Z,79
2022-08-17T06:42:00.312Z,78.4
2022-08-17T06:43:06.710Z,78.7
2022-08-17T06:44:00.627Z,78.8
2022-08-17T06:45:00.803Z,79.1
2022-08-17T06:46:00.945Z,79.4
2022-08-17T06:47:01.105Z,79.4
2022-08-17T06:48:01.242Z,79.2
2022-08-17T06:49:00.427Z,79.2
2022-08-17T06:50:00.547Z,79.5
2022-08-17T06:51:00.712Z,79.4
2022-08-17T06:52:00.860Z,79.1
2022-08-17T06:53:01.225Z,79.5
2022-08-17T06:54:01.200Z,79.4
2022-08-17T06:55:00.325Z,79
2022-08-17T06:56:00.483Z,79
2022-08-17T06:57:00.638Z,79
2022-08-17T06:58:00.786Z,78.8
2022-08-17T06:59:00.960Z,79.3
2022-08-17T07:00:01.085Z,79.1
2022-08-17T07:01:01.296Z,79.3
2022-08-17T07:02:00.455Z,78.9
2022-08-17T07:03:00.568Z,78.8
2022-08-17T07:04:05.005Z,78.9
2022-08-17T07:05:00.871Z,79.1
2022-08-17T07:06:01.023Z,78.8
2022-08-17T07:07:01.180Z,78.2
2022-08-17T07:08:00.334Z,78
2022-08-17T07:09:00.511Z,77.5
2022-08-17T07:10:00.633Z,77.2
2022-08-17T07:11:00.783Z,77.1
2022-08-17T07:12:00.929Z,77.3
2022-08-17T07:13:01.089Z,76.4
2022-08-17T07:14:01.266Z,76.8
2022-08-17T07:15:00.397Z,76.6
2022-08-17T07:16:00.540Z,76.3
2022-08-17T07:17:00.686Z,76.8
2022-08-17T07:18:01.224Z,76.4
2022-08-17T07:19:01.019Z,76.3
2022-08-17T07:20:01.142Z,76.3
2022-08-17T07:21:00.294Z,76.2
2022-08-17T07:22:00.445Z,75.8
2022-08-17T07:23:00.767Z,75.6
2022-08-17T07:24:00.779Z,75.3
2022-08-17T07:25:00.901Z,75.7
2022-08-17T07:26:01.053Z,75.4
2022-08-17T07:27:01.202Z,75.7
2022-08-17T07:28:00.349Z,75.9
2022-08-17T07:29:00.521Z,75.7
2022-08-17T07:30:00.654Z,75.8
2022-08-17T07:31:00.800Z,75.8
2022-08-17T07:32:00.965Z,75.9
2022-08-17T07:33:01.124Z,75.8
2022-08-17T07:34:01.285Z,75.7
2022-08-17T07:35:00.408Z,75.4
2022-08-17T07:36:00.554Z,75.1
2022-08-17T07:37:00.734Z,74.5
2022-08-17T07:38:00.858Z,74.7
2022-08-17T07:39:01.040Z,74.2
2022-08-17T07:40:15.118Z,74.3
2022-08-17T07:41:00.313Z,72.9
2022-08-17T07:42:00.471Z,73.7
2022-08-17T07:43:00.637Z,73.1
2022-08-17T07:44:00.837Z,74.7
2022-08-17T07:45:00.914Z,73.8
2022-08-17T07:46:01.066Z,71.9
2022-08-17T07:47:01.214Z,72
2022-08-17T07:48:00.354Z,72.1
2022-08-17T07:49:00.522Z,73.4
2022-08-17T07:50:00.690Z,73
2022-08-17T07:51:00.813Z,72.8
2022-08-17T07:52:48.247Z,72.5
2022-08-17T07:53:01.118Z,72.8
2022-08-17T07:54:13.447Z,72.9
2022-08-17T07:55:00.454Z,73.2
2022-08-17T07:56:00.597Z,72.5
2022-08-17T07:57:00.755Z,72.9
2022-08-17T07:58:00.888Z,73.3
2022-08-17T07:59:01.051Z,73
2022-08-17T08:00:01.435Z,73.9
2022-08-17T08:01:00.340Z,73.3
2022-08-17T08:02:00.565Z,71.2
2022-08-17T08:03:00.647Z,72.7
2022-08-17T08:04:00.797Z,72.7
2022-08-17T08:05:02.020Z,72.8
2022-08-17T08:06:01.114Z,72.3
2022-08-17T08:07:00.268Z,72.9
2022-08-17T08:08:00.421Z,72.1
2022-08-17T08:09:00.577Z,71.9
2022-08-17T08:10:00.759Z,71.9
2022-08-17T08:11:00.875Z,71.9
2022-08-17T08:12:01.036Z,71.8
2022-08-17T08:13:01.191Z,71.6
2022-08-17T08:14:00.332Z,70.9
2022-08-17T08:15:00.507Z,71
2022-08-17T08:16:00.640Z,71.2
2022-08-17T08:17:00.793Z,71.9
2022-08-17T08:18:00.945Z,69.3
2022-08-17T08:19:01.084Z,71.5
2022-08-17T08:20:01.275Z,71
2022-08-17T08:21:00.383Z,70.6
2022-08-17T08:22:00.541Z,69.7
2022-08-17T08:23:00.679Z,69.1
2022-08-17T08:24:00.834Z,69.9
2022-08-17T08:25:00.993Z,69.9
2022-08-17T08:26:01.127Z,70.1
2022-08-17T08:27:00.283Z,70.7
2022-08-17T08:28:00.468Z,71.1
2022-08-17T08:29:00.596Z,70.5
2022-08-17T08:30:00.742Z,69.7
2022-08-17T08:31:00.899Z,70.3
2022-08-17T08:32:01.043Z,69.7
2022-08-17T08:33:01.224Z,70.7
2022-08-17T08:34:00.343Z,69.8
2022-08-17T08:35:02.802Z,69.2
2022-08-17T08:36:00.655Z,69.1
2022-08-17T08:37:17.125Z,67.6
2022-08-17T08:38:00.971Z,66.2
2022-08-17T08:39:01.106Z,68.2
2022-08-17T08:40:01.317Z,68.2
2022-08-17T08:41:00.408Z,67.7
2022-08-17T08:42:00.565Z,66.7
2022-08-17T08:43:00.724Z,65.6
2022-08-17T08:44:00.880Z,66
2022-08-17T08:45:04.455Z,66.6
2022-08-17T08:46:01.166Z,67.3
2022-08-17T08:47:00.304Z,65.5
2022-08-17T08:48:05.553Z,65.5
2022-08-17T08:49:04.930Z,65.3
2022-08-17T08:50:04.687Z,65.8
2022-08-17T08:51:00.927Z,66.5
2022-08-17T08:52:01.068Z,63.8
2022-08-17T08:53:01.213Z,65.3
2022-08-17T08:54:00.376Z,64.9
2022-08-17T08:55:00.521Z,65.1
2022-08-17T08:56:00.716Z,64.3
2022-08-17T08:57:23.240Z,64.8
2022-08-17T08:58:00.998Z,63.4
2022-08-17T08:59:01.135Z,63.3
2022-08-17T09:00:00.301Z,62.3
2022-08-17T09:01:00.498Z,62.4
2022-08-17T09:02:00.601Z,63.7
2022-08-17T09:03:00.771Z,64.7
2022-08-17T09:04:18.354Z,65
2022-08-17T09:05:14.955Z,63.2
2022-08-17T09:06:01.193Z,64.5
2022-08-17T09:07:00.347Z,62.4
2022-08-17T09:08:00.508Z,62.4
2022-08-17T09:09:00.657Z,61.6
2022-08-17T09:10:00.794Z,63.5
2022-08-17T09:11:00.933Z,61.8
2022-08-17T09:12:03.489Z,63
2022-08-17T09:13:09.347Z,61.3
2022-08-17T09:14:00.393Z,61
2022-08-17T09:15:00.536Z,62.8
2022-08-17T09:16:00.680Z,62
2022-08-17T09:17:00.831Z,61.5
2022-08-17T09:18:39.595Z,62.4
2022-08-17T09:19:04.292Z,61.3
2022-08-17T09:20:00.276Z,60.6
2022-08-17T09:21:00.434Z,62.3
2022-08-17T09:22:00.588Z,62.5
2022-08-17T09:23:00.746Z,60.4
2022-08-17T09:24:00.913Z,61.3
2022-08-17T09:25:01.055Z,60.4
2022-08-17T09:26:01.194Z,61.2
2022-08-17T09:27:00.346Z,59.5
2022-08-17T09:28:00.907Z,59.8
2022-08-17T09:29:00.664Z,61.4
2022-08-17T09:30:00.844Z,62
2022-08-17T09:31:00.955Z,60.9
2022-08-17T09:32:01.114Z,60.1
2022-08-17T09:33:00.263Z,59.8
2022-08-17T09:34:00.423Z,60.4
2022-08-17T09:35:00.587Z,59.7
2022-08-17T09:36:00.762Z,61.8
2022-08-17T09:37:00.873Z,59.8
2022-08-17T09:38:01.036Z,59.9
2022-08-17T09:39:01.171Z,60.4
2022-08-17T09:40:00.504Z,61.2
2022-08-17T09:41:00.487Z,61.2
2022-08-17T09:42:00.622Z,61.8
2022-08-17T09:43:00.772Z,62.4
2022-08-17T09:44:00.918Z,61.8
2022-08-17T09:45:01.068Z,60.8
2022-08-17T09:46:01.240Z,60
2022-08-17T09:47:00.368Z,60.9
2022-08-17T09:48:00.529Z,61.4
2022-08-17T09:49:00.672Z,58.7
2022-08-17T09:50:00.833Z,59.8
2022-08-17T09:51:05.983Z,60.3
2022-08-17T09:52:01.135Z,59.5
2022-08-17T09:53:00.286Z,60.2
2022-08-17T09:54:15.104Z,59.1
2022-08-17T09:55:00.633Z,58.3
2022-08-17T09:56:00.781Z,58.6
2022-08-17T09:57:28.038Z,59.3
2022-08-17T09:58:01.045Z,59.4
2022-08-17T09:59:01.224Z,59.5
2022-08-17T10:00:00.351Z,59.2
2022-08-17T10:01:00.560Z,57.5
2022-08-17T10:02:00.657Z,60
2022-08-17T10:03:00.812Z,57
2022-08-17T10:04:00.979Z,58.3
2022-08-17T10:05:01.099Z,59.3
2022-08-17T10:06:01.252Z,59.2
2022-08-17T10:07:00.407Z,59.7
2022-08-17T10:08:00.582Z,59.2
2022-08-17T10:09:00.737Z,59.8
2022-08-17T10:10:00.870Z,60.7
2022-08-17T10:11:01.027Z,60.2
2022-08-17T10:12:01.169Z,61.2
2022-08-17T10:13:00.318Z,59.9
2022-08-17T10:14:00.509Z,57.9
2022-08-17T10:15:08.041Z,58.8
2022-08-17T10:16:00.778Z,58.5
2022-08-17T10:17:00.939Z,57.4
2022-08-17T10:18:01.086Z,58.5
2022-08-17T10:19:01.259Z,58.4
2022-08-17T10:20:00.394Z,57.5
2022-08-17T10:21:00.544Z,57.2
2022-08-17T10:22:14.732Z,57.4
2022-08-17T10:23:00.848Z,57
2022-08-17T10:24:01.021Z,56
2022-08-17T10:25:22.235Z,57.1
2022-08-17T10:26:00.309Z,57.9
2022-08-17T10:27:00.458Z,56.3
2022-08-17T10:28:00.613Z,56.9
2022-08-17T10:29:00.788Z,55.7
2022-08-17T10:30:00.979Z,55.9
2022-08-17T10:31:30.992Z,57.9
2022-08-17T10:32:01.229Z,57.1
2022-08-17T10:33:00.403Z,56.7
2022-08-17T10:34:00.577Z,56.3
2022-08-17T10:35:00.690Z,57.9
2022-08-17T10:36:00.838Z,58.5
2022-08-17T10:37:01.003Z,58.1
2022-08-17T10:38:01.147Z,57.9
2022-08-17T10:39:00.317Z,58.2
2022-08-17T10:40:00.522Z,58.2
2022-08-17T10:41:00.609Z,57.5
2022-08-17T10:42:00.760Z,58.6
2022-08-17T10:43:00.906Z,58
2022-08-17T10:44:38.828Z,57.9
2022-08-17T10:45:01.213Z,59.4
2022-08-17T10:46:10.531Z,57.3
2022-08-17T10:47:00.515Z,57.6
2022-08-17T10:48:05.301Z,58.7
2022-08-17T10:49:00.832Z,58.9
2022-08-17T10:50:00.985Z,58.9
2022-08-17T10:51:01.121Z,58.1
2022-08-17T10:53:00.368Z,58.1
2022-08-17T10:54:00.548Z,57.4
2022-08-17T10:55:00.737Z,58.3
2022-08-17T10:56:00.858Z,59.8
2022-08-17T10:57:01.007Z,59.5
2022-08-17T10:58:01.164Z,58.4
2022-08-17T10:59:00.312Z,58.5
2022-08-17T11:00:00.493Z,58.3
2022-08-17T11:01:00.648Z,58.2
2022-08-17T11:02:00.771Z,58.1
2022-08-17T11:03:00.916Z,58.9
2022-08-17T11:04:01.075Z,58.6
2022-08-17T11:05:01.257Z,59.6
2022-08-17T11:06:00.379Z,57.9
2022-08-17T11:07:00.540Z,58.1
2022-08-17T11:08:00.679Z,58.7
2022-08-17T11:09:00.841Z,59.7
2022-08-17T11:10:01.005Z,58.7
2022-08-17T11:11:01.166Z,58
2022-08-17T11:12:00.292Z,57.3
2022-08-17T11:13:00.449Z,57.4
2022-08-17T11:14:00.589Z,59.3
2022-08-17T11:15:00.753Z,58.5
2022-08-17T11:16:04.852Z,58.5
2022-08-17T11:17:01.067Z,58.3
2022-08-17T11:18:01.203Z,58.7
2022-08-17T11:19:00.375Z,60.9
2022-08-17T11:20:00.504Z,58.4
2022-08-17T11:21:00.678Z,60.4
2022-08-17T11:22:00.814Z,59.2
2022-08-17T11:23:00.960Z,58
2022-08-17T11:24:01.126Z,57.7
2022-08-17T11:26:00.368Z,57.1
2022-08-17T11:27:00.529Z,60.1
2022-08-17T11:28:00.707Z,60.2
2022-08-17T11:29:00.899Z,58.9
2022-08-17T11:30:02.579Z,58.2
2022-08-17T11:31:01.166Z,58.5
2022-08-17T11:32:00.325Z,58.1
2022-08-17T11:33:00.473Z,59.2
2022-08-17T11:34:00.663Z,59.1
2022-08-17T11:35:00.790Z,58.9
2022-08-17T11:36:00.927Z,59.5
2022-08-17T11:37:01.078Z,58.1
2022-08-17T11:38:01.229Z,57.6
2022-08-17T11:39:00.391Z,59
2022-08-17T11:40:00.656Z,57.8
2022-08-17T11:41:00.677Z,59.1
2022-08-17T11:42:00.834Z,60.2
2022-08-17T11:43:00.978Z,58.4
2022-08-17T11:44:01.901Z,58.4
2022-08-17T11:45:00.303Z,59
2022-08-17T11:46:00.430Z,57.9
2022-08-17T11:47:00.583Z,57.1
2022-08-17T11:48:26.638Z,58.7
2022-08-17T11:49:00.883Z,60.5
2022-08-17T11:50:01.043Z,59.8
2022-08-17T11:51:01.176Z,58.1
2022-08-17T11:52:00.319Z,58.3
2022-08-17T11:53:00.471Z,57
2022-08-17T11:54:30.659Z,56.8
2022-08-17T11:55:17.972Z,56.3
2022-08-17T11:56:00.911Z,57
2022-08-17T11:57:01.096Z,59
2022-08-17T11:58:01.209Z,59.3
2022-08-17T11:59:00.366Z,58
2022-08-17T12:00:00.528Z,59.7
2022-08-17T12:01:00.683Z,60.1
2022-08-17T12:02:00.855Z,58.7
2022-08-17T12:03:00.983Z,58.7
2022-08-17T12:04:01.157Z,57.2
2022-08-17T12:05:00.284Z,59.3
2022-08-17T12:06:00.437Z,59.5
2022-08-17T12:07:00.598Z,57.7
2022-08-17T12:08:00.761Z,58.9
2022-08-17T12:09:00.916Z,57.2
2022-08-17T12:10:01.047Z,57.2
2022-08-17T12:11:01.216Z,59.8
2022-08-17T12:12:12.554Z,58.9
2022-08-17T12:13:00.501Z,57.9
2022-08-17T12:14:00.663Z,57.7
2022-08-17T12:15:11.132Z,57.8
2022-08-17T12:16:00.936Z,58.8
2022-08-17T12:17:01.123Z,54.5
2022-08-17T12:18:01.255Z,55.1
2022-08-17T12:19:00.390Z,55.8
2022-08-17T12:20:00.546Z,56.8
2022-08-17T12:21:00.699Z,57.2
2022-08-17T12:22:00.861Z,55.3
2022-08-17T12:23:01.070Z,56.7
2022-08-17T12:24:01.143Z,55.3
2022-08-17T12:25:00.298Z,57.9
2022-08-17T12:26:00.446Z,55.8
2022-08-17T12:27:00.622Z,55.1
2022-08-17T12:28:06.719Z,54.9
2022-08-17T12:29:01.134Z,56.9
2022-08-17T12:30:01.081Z,57.2
2022-08-17T12:31:01.232Z,58.1
2022-08-17T12:32:00.386Z,59
2022-08-17T12:33:00.538Z,54.9
2022-08-17T12:34:00.664Z,56.9
2022-08-17T12:35:00.814Z,55.5
2022-08-17T12:36:00.971Z,55.2
2022-08-17T12:37:01.126Z,56.6
2022-08-17T12:38:00.309Z,55.2
2022-08-17T12:39:14.182Z,55
2022-08-17T12:40:00.624Z,55.6
2022-08-17T12:41:00.725Z,54.6
2022-08-17T12:42:02.555Z,54.1
2022-08-17T12:43:01.050Z,54.1
2022-08-17T12:44:01.170Z,53.6
2022-08-17T12:45:00.324Z,53.6
2022-08-17T12:46:00.474Z,55.8
2022-08-17T12:47:00.631Z,55.6
2022-08-17T12:48:00.800Z,53.4
2022-08-17T12:49:00.944Z,51.8
2022-08-17T12:50:01.089Z,52.7
2022-08-17T12:51:01.240Z,51.5
2022-08-17T12:52:00.383Z,52.7
2022-08-17T12:53:02.575Z,51.9
2022-08-17T12:54:00.715Z,52.5
2022-08-17T12:55:00.840Z,54.2
2022-08-17T12:56:00.991Z,54.2
2022-08-17T12:57:01.133Z,53.2
2022-08-17T12:58:00.917Z,52.5
2022-08-17T12:59:00.459Z,52.9
2022-08-17T13:00:00.618Z,53.4
2022-08-17T13:01:00.744Z,54.1
2022-08-17T13:02:00.966Z,53.1
2022-08-17T13:03:01.063Z,53.1
2022-08-17T13:04:01.205Z,54.1
2022-08-17T13:05:00.357Z,53.7
2022-08-17T13:06:00.512Z,54.1
2022-08-17T13:07:00.678Z,53.6
2022-08-17T13:08:00.812Z,55.1
2022-08-17T13:09:00.968Z,54.2
2022-08-17T13:10:01.112Z,53.3
2022-08-17T13:11:00.278Z,53.4
2022-08-17T13:12:00.453Z,54.7
2022-08-17T13:13:00.588Z,53.7
2022-08-17T13:14:00.726Z,53.9
2022-08-17T13:15:00.870Z,53.5
2022-08-17T13:16:01.020Z,54.8
2022-08-17T13:17:01.200Z,54.3
2022-08-17T13:18:00.327Z,53.9
2022-08-17T13:19:00.479Z,53
2022-08-17T13:20:00.619Z,53.8
2022-08-17T13:21:00.777Z,51.8
2022-08-17T13:22:00.934Z,52.2
2022-08-17T13:23:01.062Z,53.6
2022-08-17T13:24:01.215Z,53.1
2022-08-17T13:25:00.357Z,53.7
2022-08-17T13:26:00.523Z,51.5